Time;durP1;ratioP1;P1;durP2;ratioP2;P2;SDS_P1;SDS_P2;PMS_P1;PMS_P2;Temp;Humidity;BMP_temperature;BMP_pressure;BME280_temperature;BME280_humidity;BME280_pressure;Samples;Min_cycle;Max_cycle;Signal;HPM_P1;HPM_P2
2024/02/16 00:01:50;;;;;;;7.43;4.25;;;;;;;-141.50;100.00;63355.56;4996535;28;20046;-81
2024/02/16 00:04:17;;;;;;;8.43;4.90;;;;;;;-141.50;100.00;63355.56;5002360;28;20626;-79
2024/02/16 00:06:43;;;;;;;11.32;4.57;;;;;;;-141.50;100.00;63355.56;5000395;28;20034;-80
2024/02/16 00:09:10;;;;;;;8.73;4.55;;;;;;;-141.50;100.00;63355.56;5042225;28;20088;-80
2024/02/16 00:11:37;;;;;;;12.02;5.18;;;;;;;-141.50;100.00;63355.56;5040386;28;20128;-80
2024/02/16 00:14:04;;;;;;;9.02;4.57;;;;;;;-141.50;100.00;63355.56;5014867;28;20081;-79
2024/02/16 00:16:31;;;;;;;7.68;4.38;;;;;;;-141.50;100.00;63355.56;5009984;28;20595;-78
2024/02/16 00:18:58;;;;;;;14.10;6.10;;;;;;;-141.50;100.00;63355.56;5036004;28;20050;-80
2024/02/16 00:21:25;;;;;;;14.40;6.18;;;;;;;-141.50;100.00;63355.56;5004534;28;20068;-80
2024/02/16 00:23:52;;;;;;;15.55;6.60;;;;;;;-141.50;100.00;63355.56;5022796;28;20571;-79
2024/02/16 00:26:19;;;;;;;12.38;5.85;;;;;;;-141.50;100.00;63355.56;5031047;28;20060;-81
2024/02/16 00:28:46;;;;;;;11.18;5.47;;;;;;;-141.50;100.00;63355.56;5018332;28;20049;-82
2024/02/16 00:31:13;;;;;;;10.68;5.20;;;;;;;-141.50;100.00;63355.56;5032285;28;20532;-79
2024/02/16 00:33:41;;;;;;;11.18;5.22;;;;;;;-141.50;100.00;63355.56;5017108;28;20049;-80
2024/02/16 00:36:09;;;;;;;13.02;5.53;;;;;;;-141.50;100.00;63355.56;5006427;28;20473;-81
2024/02/16 00:38:36;;;;;;;9.45;5.20;;;;;;;-141.50;100.00;63355.56;5011705;28;20049;-79
2024/02/16 00:41:04;;;;;;;12.25;5.13;;;;;;;-141.50;100.00;63355.56;5013665;28;20073;-79
2024/02/16 00:43:31;;;;;;;8.90;4.68;;;;;;;-141.50;100.00;63355.56;5028062;28;20042;-80
2024/02/16 00:45:58;;;;;;;8.38;4.68;;;;;;;-141.50;100.00;63355.56;5011990;28;20155;-80
2024/02/16 00:48:25;;;;;;;8.70;4.18;;;;;;;-141.50;100.00;63355.56;5012072;28;20077;-81
2024/02/16 00:50:52;;;;;;;11.25;4.53;;;;;;;-141.50;100.00;63355.56;5009710;28;20054;-80
2024/02/16 00:53:19;;;;;;;10.35;5.53;;;;;;;-141.50;100.00;63355.56;4998815;28;20058;-81
2024/02/16 00:55:46;;;;;;;8.85;5.00;;;;;;;-141.50;100.00;63355.56;5002152;28;20046;-80
2024/02/16 00:58:12;;;;;;;14.48;5.20;;;;;;;-141.50;100.00;63355.56;4996018;28;20432;-80
2024/02/16 01:00:39;;;;;;;11.57;5.20;;;;;;;-141.50;100.00;63355.56;5002873;28;20077;-81
2024/02/16 01:03:09;;;;;;;10.63;4.88;;;;;;;-141.50;100.00;63355.56;4995224;28;20101;-81
2024/02/16 01:05:36;;;;;;;9.35;4.55;;;;;;;-141.50;100.00;63355.56;5004967;28;20042;-80
2024/02/16 01:08:03;;;;;;;8.23;4.45;;;;;;;-141.50;100.00;63355.56;5005111;28;20060;-80
2024/02/16 01:10:29;;;;;;;10.07;4.80;;;;;;;-141.50;100.00;63355.56;5007973;28;20042;-79
2024/02/16 01:12:56;;;;;;;9.07;4.50;;;;;;;-141.50;100.00;63355.56;5002255;28;20083;-77
2024/02/16 01:15:23;;;;;;;8.75;5.03;;;;;;;-141.50;100.00;63355.56;5020321;28;20090;-81
2024/02/16 01:17:50;;;;;;;12.73;4.80;;;;;;;-141.50;100.00;63355.56;5011654;28;20118;-78
2024/02/16 01:20:17;;;;;;;10.98;5.00;;;;;;;-141.50;100.00;63355.56;5012354;28;20073;-79
2024/02/16 01:22:44;;;;;;;11.05;4.30;;;;;;;-141.50;100.00;63355.56;5012367;28;20107;-79
2024/02/16 01:25:11;;;;;;;8.00;4.30;;;;;;;-141.50;100.00;63355.56;5018252;28;20145;-79
2024/02/16 01:27:40;;;;;;;6.88;3.97;;;;;;;-141.50;100.00;63355.56;5042324;28;20045;-79
2024/02/16 01:30:08;;;;;;;8.65;4.53;;;;;;;-141.50;100.00;63355.56;4998385;28;20062;-79
2024/02/16 01:32:35;;;;;;;8.93;4.38;;;;;;;-141.50;100.00;63355.56;5002075;28;20103;-79
2024/02/16 01:35:01;;;;;;;10.23;4.68;;;;;;;-141.50;100.00;63355.56;5035349;28;20076;-81
2024/02/16 01:37:29;;;;;;;12.52;5.40;;;;;;;-141.50;100.00;63355.56;5043098;28;20033;-79
2024/02/16 01:39:55;;;;;;;16.02;8.07;;;;;;;-141.50;100.00;63355.56;5015039;28;20052;-79
2024/02/16 01:42:22;;;;;;;17.90;7.40;;;;;;;-141.50;100.00;63355.56;5032049;28;20057;-79
2024/02/16 01:44:50;;;;;;;12.98;5.22;;;;;;;-141.50;100.00;63355.56;5029263;28;20077;-79
2024/02/16 01:47:19;;;;;;;11.27;5.20;;;;;;;-141.50;100.00;63355.56;5016975;28;20064;-81
2024/02/16 01:49:45;;;;;;;7.55;4.03;;;;;;;-141.50;100.00;63355.56;5009732;28;20045;-79
2024/02/16 01:52:12;;;;;;;8.13;3.38;;;;;;;-141.50;100.00;63355.56;5033953;28;20093;-80
2024/02/16 01:54:39;;;;;;;7.75;2.90;;;;;;;-141.50;100.00;63355.56;5037936;28;20046;-79
2024/02/16 01:57:07;;;;;;;9.60;4.03;;;;;;;-141.50;100.00;63355.56;5029586;28;20068;-81
2024/02/16 01:59:36;;;;;;;8.48;3.95;;;;;;;-141.50;100.00;63355.56;5013821;28;20672;-81
2024/02/16 02:02:03;;;;;;;9.73;3.97;;;;;;;-141.50;100.00;63355.56;5003120;28;20046;-81
2024/02/16 02:04:30;;;;;;;9.80;4.00;;;;;;;-141.50;100.00;63355.56;5007168;28;20042;-80
2024/02/16 02:06:57;;;;;;;7.78;3.95;;;;;;;-141.50;100.00;63355.56;5006042;28;20062;-80
2024/02/16 02:09:24;;;;;;;11.20;4.10;;;;;;;-141.50;100.00;63355.56;5004407;28;20440;-80
2024/02/16 02:11:51;;;;;;;7.35;3.72;;;;;;;-141.50;100.00;63355.56;5020387;28;20069;-79
2024/02/16 02:14:22;;;;;;;6.80;3.42;;;;;;;-141.50;100.00;63355.56;5008343;28;20254;-81
2024/02/16 02:16:49;;;;;;;9.23;3.65;;;;;;;-141.50;100.00;63355.56;5004064;28;20038;-81
2024/02/16 02:19:24;;;;;;;6.90;3.47;;;;;;;-141.50;100.00;63355.56;4997683;28;20053;-79
2024/02/16 02:21:51;;;;;;;5.10;2.53;;;;;;;-141.50;100.00;63355.56;5004522;28;20052;-80
2024/02/16 02:24:19;;;;;;;7.50;2.50;;;;;;;-141.50;100.00;63355.56;5010665;28;20433;-80
2024/02/16 02:26:46;;;;;;;4.43;2.30;;;;;;;-141.50;100.00;63355.56;5006734;28;20049;-78
2024/02/16 02:29:13;;;;;;;5.60;2.58;;;;;;;-141.50;100.00;63355.56;5008534;28;20058;-82
2024/02/16 02:31:40;;;;;;;4.25;2.45;;;;;;;-141.50;100.00;63355.56;5002970;28;20374;-81
2024/02/16 02:34:07;;;;;;;8.40;3.20;;;;;;;-141.50;100.00;63355.56;5015479;28;20061;-79
2024/02/16 02:36:35;;;;;;;9.90;3.13;;;;;;;-141.50;100.00;63355.56;5008294;28;20144;-80
2024/02/16 02:39:02;;;;;;;8.27;3.70;;;;;;;-141.50;100.00;63355.56;5009515;28;20061;-81
2024/02/16 02:41:29;;;;;;;6.07;3.28;;;;;;;-141.50;100.00;63355.56;5007874;28;20561;-80
2024/02/16 02:43:56;;;;;;;5.93;3.03;;;;;;;-141.50;100.00;63355.56;5009203;28;20112;-80
2024/02/16 02:46:23;;;;;;;6.43;3.17;;;;;;;-141.50;100.00;63355.56;5010534;28;20558;-79
2024/02/16 02:48:51;;;;;;;4.78;2.63;;;;;;;-141.50;100.00;63355.56;5001558;28;20061;-78
2024/02/16 02:51:19;;;;;;;4.82;2.50;;;;;;;-141.50;100.00;63355.56;5025927;28;20061;-78
2024/02/16 02:53:45;;;;;;;4.32;2.40;;;;;;;-141.50;100.00;63355.56;5048005;28;20049;-78
2024/02/16 02:56:12;;;;;;;4.68;2.22;;;;;;;-141.50;100.00;63355.56;5034593;28;20514;-79
2024/02/16 02:58:40;;;;;;;4.50;2.33;;;;;;;-141.50;100.00;63355.56;5046086;28;20729;-79
2024/02/16 03:01:07;;;;;;;5.38;2.47;;;;;;;-141.50;100.00;63355.56;5024234;28;20065;-77
2024/02/16 03:03:35;;;;;;;4.70;2.25;;;;;;;-141.50;100.00;63355.56;4998504;28;20053;-80
2024/02/16 03:06:03;;;;;;;4.18;2.15;;;;;;;-141.50;100.00;63355.56;4997817;28;20436;-80
2024/02/16 03:08:31;;;;;;;4.63;2.15;;;;;;;-141.50;100.00;63355.56;5015200;28;20101;-80
2024/02/16 03:11:00;;;;;;;3.42;2.20;;;;;;;-141.50;100.00;63355.56;5011832;28;20142;-79
2024/02/16 03:13:28;;;;;;;4.82;2.22;;;;;;;-141.50;100.00;63355.56;5020084;28;20049;-79
2024/02/16 03:15:54;;;;;;;3.92;2.22;;;;;;;-141.50;100.00;63355.56;5007550;28;20723;-81
2024/02/16 03:18:22;;;;;;;4.22;2.03;;;;;;;-141.50;100.00;63355.56;5006983;28;20058;-81
2024/02/16 03:20:50;;;;;;;5.47;2.42;;;;;;;-141.50;100.00;63355.56;5005740;28;20068;-80
2024/02/16 03:23:17;;;;;;;6.28;2.70;;;;;;;-141.50;100.00;63355.56;4987523;28;20133;-80
2024/02/16 03:25:44;;;;;;;6.00;2.70;;;;;;;-141.50;100.00;63355.56;5009419;28;20509;-80
2024/02/16 03:28:12;;;;;;;4.53;2.40;;;;;;;-141.50;100.00;63355.56;5011635;28;20066;-80
2024/02/16 03:30:40;;;;;;;6.30;2.90;;;;;;;-141.50;100.00;63355.56;5031383;28;20048;-79
2024/02/16 03:33:08;;;;;;;4.68;2.58;;;;;;;-141.50;100.00;63355.56;5001729;28;20132;-80
2024/02/16 03:35:36;;;;;;;6.68;3.03;;;;;;;-141.50;100.00;63355.56;5003389;28;20520;-81
2024/02/16 03:38:06;;;;;;;5.43;2.78;;;;;;;-141.50;100.00;63355.56;5008712;28;20050;-80
2024/02/16 03:40:33;;;;;;;5.15;3.10;;;;;;;-141.50;100.00;63355.56;5022739;28;20042;-81
2024/02/16 03:43:00;;;;;;;5.95;2.80;;;;;;;-141.50;100.00;63355.56;5011321;28;20122;-78
2024/02/16 03:45:28;;;;;;;4.47;2.45;;;;;;;-141.50;100.00;63355.56;5018322;28;20049;-78
2024/02/16 03:47:55;;;;;;;5.45;2.50;;;;;;;-141.50;100.00;63355.56;5034313;28;20350;-81
2024/02/16 03:50:22;;;;;;;6.35;2.70;;;;;;;-141.50;100.00;63355.56;5038086;28;20340;-80
2024/02/16 03:52:49;;;;;;;8.35;2.33;;;;;;;-141.50;100.00;63355.56;5002103;28;20162;-80
2024/02/16 03:55:16;;;;;;;4.45;2.53;;;;;;;-141.50;100.00;63355.56;5049719;28;20111;-78
2024/02/16 03:57:43;;;;;;;4.90;2.65;;;;;;;-141.50;100.00;63355.56;5015943;28;20496;-78
2024/02/16 04:00:12;;;;;;;8.35;2.97;;;;;;;-141.50;100.00;63355.56;5006135;28;20853;-79
2024/02/16 04:02:40;;;;;;;5.18;2.30;;;;;;;-141.50;100.00;63355.56;5004366;28;20480;-80
2024/02/16 04:05:07;;;;;;;4.13;2.20;;;;;;;-141.50;100.00;63355.56;5001383;28;20065;-81
2024/02/16 04:07:35;;;;;;;4.47;2.20;;;;;;;-141.50;100.00;63355.56;5027657;28;20049;-80
2024/02/16 04:10:03;;;;;;;4.53;2.28;;;;;;;-141.50;100.00;63355.56;5019068;28;20117;-79
2024/02/16 04:12:29;;;;;;;6.68;2.45;;;;;;;-141.50;100.00;63355.56;5018970;28;20042;-80
2024/02/16 04:14:56;;;;;;;8.20;3.17;;;;;;;-141.50;100.00;63355.56;5010198;28;20046;-80
2024/02/16 04:17:23;;;;;;;7.25;3.22;;;;;;;-141.50;100.00;63355.56;5015721;28;20063;-79
2024/02/16 04:19:50;;;;;;;5.20;2.55;;;;;;;-141.50;100.00;63355.56;5031838;28;20057;-79
2024/02/16 04:22:17;;;;;;;5.07;2.60;;;;;;;-141.50;100.00;63355.56;5042917;28;20571;-80
2024/02/16 04:24:44;;;;;;;5.43;2.83;;;;;;;-141.50;100.00;63355.56;5014065;28;20050;-78
2024/02/16 04:27:11;;;;;;;6.53;2.95;;;;;;;-141.50;100.00;63355.56;5017666;28;20108;-79
2024/02/16 04:29:37;;;;;;;4.22;2.55;;;;;;;-141.50;100.00;63355.56;5018948;28;20451;-79
2024/02/16 04:32:04;;;;;;;6.30;2.85;;;;;;;-141.50;100.00;63355.56;5020839;28;20053;-80
2024/02/16 04:34:31;;;;;;;4.63;2.60;;;;;;;-141.50;100.00;63355.56;5026680;28;20520;-79
2024/02/16 04:36:58;;;;;;;6.22;2.50;;;;;;;-141.50;100.00;63355.56;5012627;28;20113;-81
2024/02/16 04:39:25;;;;;;;4.55;2.88;;;;;;;-141.50;100.00;63355.56;5026543;28;20058;-80
2024/02/16 04:41:53;;;;;;;5.65;2.60;;;;;;;-141.50;100.00;63355.56;5030365;28;20044;-80
2024/02/16 04:44:20;;;;;;;4.63;2.63;;;;;;;-141.50;100.00;63355.56;5041929;28;20057;-79
2024/02/16 04:46:47;;;;;;;5.07;2.75;;;;;;;-141.50;100.00;63355.56;5037415;28;20044;-81
2024/02/16 04:49:13;;;;;;;4.85;2.53;;;;;;;-141.50;100.00;63355.56;5033701;28;20062;-78
2024/02/16 04:51:41;;;;;;;10.75;2.95;;;;;;;-141.50;100.00;63355.56;5017845;28;20046;-81
2024/02/16 04:54:07;;;;;;;6.22;2.47;;;;;;;-141.50;100.00;63355.56;5016492;28;20546;-79
2024/02/16 04:56:37;;;;;;;6.07;2.72;;;;;;;-141.50;100.00;63355.56;5028482;28;20049;-80
2024/02/16 04:59:04;;;;;;;6.45;2.50;;;;;;;-141.50;100.00;63355.56;5004528;28;20045;-80
2024/02/16 05:01:31;;;;;;;4.28;2.25;;;;;;;-141.50;100.00;63355.56;5024725;28;20052;-80
2024/02/16 05:03:59;;;;;;;7.32;2.88;;;;;;;-141.50;100.00;63355.56;5021613;28;20041;-79
2024/02/16 05:06:26;;;;;;;4.97;2.70;;;;;;;-141.50;100.00;63355.56;5041551;28;20045;-80
2024/02/16 05:08:53;;;;;;;5.80;3.03;;;;;;;-141.50;100.00;63355.56;5031252;28;20041;-80
2024/02/16 05:11:21;;;;;;;6.15;2.63;;;;;;;-141.50;100.00;63355.56;5019823;28;20067;-81
2024/02/16 05:13:48;;;;;;;5.50;2.90;;;;;;;-141.50;100.00;63355.56;5012630;28;20076;-79
2024/02/16 05:16:16;;;;;;;4.50;2.47;;;;;;;-141.50;100.00;63355.56;5018006;28;20053;-79
2024/02/16 05:18:43;;;;;;;5.40;2.90;;;;;;;-141.50;100.00;63355.56;5001094;28;20046;-79
2024/02/16 05:21:11;;;;;;;5.25;2.78;;;;;;;-141.50;100.00;63355.56;5005714;28;20064;-80
2024/02/16 05:23:37;;;;;;;5.70;2.95;;;;;;;-141.50;100.00;63355.56;5021462;28;20115;-79
2024/02/16 05:26:04;;;;;;;5.30;2.80;;;;;;;-141.50;100.00;63355.56;5013555;28;20424;-79
2024/02/16 05:28:31;;;;;;;5.75;2.88;;;;;;;-141.50;100.00;63355.56;5033614;28;20038;-81
2024/02/16 05:31:03;;;;;;;4.22;2.33;;;;;;;-141.50;100.00;63355.56;5036913;28;20041;-80
2024/02/16 05:33:30;;;;;;;6.18;2.63;;;;;;;-141.50;100.00;63355.56;5028345;28;20052;-81
2024/02/16 05:35:58;;;;;;;7.35;2.88;;;;;;;-141.50;100.00;63355.56;5033646;28;20709;-81
2024/02/16 05:38:40;;;;;;;5.30;2.70;;;;;;;-141.50;100.00;63355.56;4995216;28;20405;-80
2024/02/16 05:41:07;;;;;;;8.73;2.75;;;;;;;-141.50;100.00;63355.56;5025993;28;20587;-79
2024/02/16 05:43:34;;;;;;;8.30;2.97;;;;;;;-141.50;100.00;63355.56;5019223;28;20046;-81
2024/02/16 05:46:01;;;;;;;6.97;2.70;;;;;;;-141.50;100.00;63355.56;5028247;28;20066;-79
2024/02/16 05:48:30;;;;;;;5.20;2.83;;;;;;;-141.50;100.00;63355.56;5008721;28;20042;-79
2024/02/16 05:51:00;;;;;;;6.18;3.25;;;;;;;-141.50;100.00;63355.56;5006630;28;20073;-80
2024/02/16 05:53:27;;;;;;;5.18;2.75;;;;;;;-141.50;100.00;63355.56;4995495;28;20481;-80
2024/02/16 05:55:55;;;;;;;7.55;2.92;;;;;;;-141.50;100.00;63355.56;5020023;28;20041;-80
2024/02/16 05:58:22;;;;;;;6.35;2.53;;;;;;;-141.50;100.00;63355.56;5045528;28;20053;-81
2024/02/16 06:00:49;;;;;;;5.93;2.95;;;;;;;-141.50;100.00;63355.56;5042324;28;20508;-80
2024/02/16 06:03:19;;;;;;;5.65;2.60;;;;;;;-141.50;100.00;63355.56;5029144;28;20136;-80
2024/02/16 06:05:45;;;;;;;4.95;2.58;;;;;;;-141.50;100.00;63355.56;5031258;28;20072;-80
2024/02/16 06:08:13;;;;;;;4.72;2.35;;;;;;;-141.50;100.00;63355.56;5031740;28;20075;-79
2024/02/16 06:10:41;;;;;;;5.60;2.33;;;;;;;-141.50;100.00;63355.56;5021235;28;20052;-81
2024/02/16 06:13:08;;;;;;;5.28;2.53;;;;;;;-141.50;100.00;63355.56;5037576;28;20432;-80
2024/02/16 06:15:37;;;;;;;4.82;2.53;;;;;;;-141.50;100.00;63355.56;5017665;28;20054;-79
2024/02/16 06:18:04;;;;;;;6.57;3.20;;;;;;;-141.50;100.00;63355.56;5013238;28;20080;-79
2024/02/16 06:20:31;;;;;;;9.05;3.05;;;;;;;-141.50;100.00;63355.56;5009596;28;20046;-78
2024/02/16 06:22:57;;;;;;;6.25;2.35;;;;;;;-141.50;100.00;63355.56;4999166;28;20049;-79
2024/02/16 06:25:24;;;;;;;4.80;2.60;;;;;;;-141.50;100.00;63355.56;5009408;28;20087;-79
2024/02/16 06:27:51;;;;;;;5.68;2.53;;;;;;;-141.50;100.00;63355.56;5021410;28;20060;-79
2024/02/16 06:30:18;;;;;;;4.75;2.47;;;;;;;-141.50;100.00;63355.56;5030825;28;20060;-79
2024/02/16 06:32:45;;;;;;;4.97;2.60;;;;;;;-141.50;100.00;63355.56;5019608;28;20133;-78
2024/02/16 06:35:11;;;;;;;6.30;3.13;;;;;;;-141.50;100.00;63355.56;5017524;28;20083;-78
2024/02/16 06:37:38;;;;;;;6.05;3.08;;;;;;;-141.50;100.00;63355.56;5038142;28;20045;-79
2024/02/16 06:40:09;;;;;;;5.68;2.80;;;;;;;-141.50;100.00;63355.56;5033838;28;20076;-79
2024/02/16 06:42:36;;;;;;;6.18;3.17;;;;;;;-141.50;100.00;63355.56;5012662;28;20045;-78
2024/02/16 06:45:05;;;;;;;4.65;2.55;;;;;;;-141.50;100.00;63355.56;5013208;28;20136;-79
2024/02/16 06:47:32;;;;;;;5.65;2.55;;;;;;;-141.50;100.00;63355.56;5018414;28;20103;-79
2024/02/16 06:49:59;;;;;;;4.90;2.42;;;;;;;-141.50;100.00;63355.56;5007166;28;20054;-79
2024/02/16 06:52:25;;;;;;;4.15;2.40;;;;;;;-141.50;100.00;63355.56;5043794;28;20053;-79
2024/02/16 06:54:53;;;;;;;6.50;2.67;;;;;;;-141.50;100.00;63355.56;5037188;28;20046;-79
2024/02/16 06:57:20;;;;;;;6.15;2.70;;;;;;;-141.50;100.00;63355.56;5027181;28;20057;-79
2024/02/16 06:59:47;;;;;;;5.32;2.60;;;;;;;-141.50;100.00;63355.56;5024842;28;20178;-78
2024/02/16 07:02:14;;;;;;;5.78;2.83;;;;;;;-141.50;100.00;63355.56;5024018;28;20064;-79
2024/02/16 07:04:42;;;;;;;6.80;3.15;;;;;;;-141.50;100.00;63355.56;5019295;28;20048;-79
2024/02/16 07:07:09;;;;;;;4.47;2.60;;;;;;;-141.50;100.00;63355.56;4996302;28;20054;-81
2024/02/16 07:09:36;;;;;;;6.30;3.08;;;;;;;-141.50;100.00;63355.56;5020167;28;20085;-80
2024/02/16 07:12:03;;;;;;;7.40;3.05;;;;;;;-141.50;100.00;63355.56;5002489;28;20286;-81
2024/02/16 07:14:30;;;;;;;6.15;3.42;;;;;;;-141.50;100.00;63355.56;5012205;28;20046;-79
2024/02/16 07:16:57;;;;;;;7.30;3.10;;;;;;;-141.50;100.00;63355.56;5003733;28;20633;-81
2024/02/16 07:19:24;;;;;;;7.70;3.25;;;;;;;-141.50;100.00;63355.56;5020360;28;20054;-80
2024/02/16 07:21:52;;;;;;;9.50;4.10;;;;;;;-141.50;100.00;63355.56;5000641;28;20139;-79
2024/02/16 07:24:19;;;;;;;23.98;7.97;;;;;;;-141.50;100.00;63355.56;4999600;28;20057;-81
2024/02/16 07:26:46;;;;;;;36.33;13.27;;;;;;;-141.50;100.00;63355.56;5028687;28;20053;-80
2024/02/16 07:29:16;;;;;;;67.85;20.42;;;;;;;-141.50;100.00;63355.56;5012382;28;20096;-78
2024/02/16 07:31:43;;;;;;;81.18;24.67;;;;;;;-141.50;100.00;63355.56;5014874;28;20461;-83
2024/02/16 07:34:11;;;;;;;101.18;28.60;;;;;;;-141.50;100.00;63355.56;5003386;28;20046;-80
2024/02/16 07:36:38;;;;;;;103.38;25.40;;;;;;;-141.50;100.00;63355.56;5010390;28;20049;-78
2024/02/16 07:39:05;;;;;;;52.13;14.55;;;;;;;-141.50;100.00;63355.56;5007906;28;20123;-80
2024/02/16 07:41:32;;;;;;;29.17;8.63;;;;;;;-141.50;100.00;63355.56;5021577;28;20064;-79
2024/02/16 07:43:59;;;;;;;8.40;3.67;;;;;;;-141.50;100.00;63355.56;5018833;28;20895;-80
2024/02/16 07:46:26;;;;;;;8.13;3.65;;;;;;;-141.50;100.00;63355.56;5011142;28;20064;-79
2024/02/16 07:48:52;;;;;;;11.32;3.60;;;;;;;-141.50;100.00;63355.56;5011975;28;20115;-80
2024/02/16 07:51:19;;;;;;;5.60;2.65;;;;;;;-141.50;100.00;63355.56;5015037;28;20471;-78
2024/02/16 07:53:46;;;;;;;7.25;3.00;;;;;;;-141.50;100.00;63355.56;5010844;28;20189;-79
2024/02/16 07:56:14;;;;;;;11.23;3.75;;;;;;;-141.50;100.00;63355.56;5009060;28;20058;-78
2024/02/16 07:58:44;;;;;;;26.65;7.80;;;;;;;-141.50;100.00;63355.56;5023602;28;20060;-79
2024/02/16 08:01:17;;;;;;;25.58;8.02;;;;;;;-141.50;100.00;63355.56;5029205;28;20065;-80
2024/02/16 08:03:48;;;;;;;30.60;6.68;;;;;;;-141.50;100.00;63355.56;5037461;28;20127;-81
2024/02/16 08:06:16;;;;;;;34.20;7.97;;;;;;;-141.50;100.00;63355.56;5008418;28;20137;-82
2024/02/16 08:08:43;;;;;;;40.08;8.35;;;;;;;-141.50;100.00;63355.56;5015210;28;20721;-78
2024/02/16 08:11:10;;;;;;;48.17;10.25;;;;;;;-141.50;100.00;63355.56;5014157;28;20575;-77
2024/02/16 08:13:36;;;;;;;77.05;15.38;;;;;;;-141.50;100.00;63355.56;5004759;28;20045;-80
2024/02/16 08:16:06;;;;;;;78.82;15.27;;;;;;;-141.50;100.00;63355.56;4999079;28;20559;-80
2024/02/16 08:18:34;;;;;;;57.53;11.50;;;;;;;-141.50;100.00;63355.56;5018020;28;20124;-79
2024/02/16 08:21:01;;;;;;;61.05;14.50;;;;;;;-141.50;100.00;63355.56;4994274;28;20525;-80
2024/02/16 08:23:28;;;;;;;16.95;4.75;;;;;;;-141.50;100.00;63355.56;5002117;28;20041;-78
2024/02/16 08:25:55;;;;;;;17.25;4.75;;;;;;;-141.50;100.00;63355.56;5049548;28;20037;-79
2024/02/16 08:28:22;;;;;;;13.90;4.38;;;;;;;-141.50;100.00;63355.56;5035633;28;20061;-79
2024/02/16 08:30:48;;;;;;;7.47;3.17;;;;;;;-141.50;100.00;63355.56;5058405;28;20064;-78
2024/02/16 08:33:15;;;;;;;66.97;16.10;;;;;;;-141.50;100.00;63355.56;5039747;28;20061;-80
2024/02/16 08:35:43;;;;;;;36.35;8.93;;;;;;;-141.50;100.00;63355.56;5055042;28;20048;-78
2024/02/16 08:38:13;;;;;;;30.88;8.50;;;;;;;-141.50;100.00;63355.56;5030306;28;20053;-79
2024/02/16 08:40:40;;;;;;;16.77;5.93;;;;;;;-141.50;100.00;63355.56;5023336;28;20049;-79
2024/02/16 08:43:09;;;;;;;31.58;9.30;;;;;;;-141.50;100.00;63355.56;5028982;28;20133;-79
2024/02/16 08:45:36;;;;;;;35.60;9.88;;;;;;;-141.50;100.00;63355.56;5010090;28;20064;-79
2024/02/16 08:48:04;;;;;;;22.17;5.65;;;;;;;-141.50;100.00;63355.56;5022776;28;20332;-79
2024/02/16 08:50:31;;;;;;;33.72;9.20;;;;;;;-141.50;100.00;63355.56;5018298;28;20068;-82
2024/02/16 08:52:58;;;;;;;56.33;15.48;;;;;;;-141.50;100.00;63355.56;5002976;28;20057;-80
2024/02/16 08:55:24;;;;;;;49.03;12.65;;;;;;;-141.50;100.00;63355.56;5029049;28;20061;-81
2024/02/16 08:57:52;;;;;;;34.90;11.73;;;;;;;-141.50;100.00;63355.56;5034025;28;20048;-78
2024/02/16 09:00:19;;;;;;;27.08;10.15;;;;;;;-141.50;100.00;63355.56;5043598;28;20058;-79
2024/02/16 09:02:46;;;;;;;11.40;5.53;;;;;;;-141.50;100.00;63355.56;5036436;28;20569;-80
2024/02/16 09:05:14;;;;;;;7.03;2.95;;;;;;;-141.50;100.00;63355.56;5031482;28;20149;-79
2024/02/16 09:07:41;;;;;;;6.18;2.70;;;;;;;-141.50;100.00;63355.56;5035772;28;20133;-79
2024/02/16 09:10:08;;;;;;;5.32;2.70;;;;;;;-141.50;100.00;63355.56;5021408;28;20445;-80
2024/02/16 09:12:35;;;;;;;5.50;2.80;;;;;;;-141.50;100.00;63355.56;5024343;28;20060;-82
2024/02/16 09:15:02;;;;;;;7.00;2.53;;;;;;;-141.50;100.00;63355.56;5013831;28;20046;-79
2024/02/16 09:17:29;;;;;;;6.47;2.72;;;;;;;-141.50;100.00;63355.56;5035140;28;20045;-79
2024/02/16 09:19:56;;;;;;;6.35;2.25;;;;;;;-141.50;100.00;63355.56;5011692;28;20141;-81
2024/02/16 09:22:23;;;;;;;5.05;2.58;;;;;;;-141.50;100.00;63355.56;5009866;28;20819;-80
2024/02/16 09:25:03;;;;;;;6.60;2.33;;;;;;;-141.50;100.00;63355.56;5044651;28;20128;-79
2024/02/16 09:27:31;;;;;;;5.20;2.40;;;;;;;-141.50;100.00;63355.56;5013313;28;20049;-78
2024/02/16 09:29:58;;;;;;;5.50;2.45;;;;;;;-141.50;100.00;63355.56;5015656;28;20111;-79
2024/02/16 09:32:25;;;;;;;7.10;2.75;;;;;;;-141.50;100.00;63355.56;5002368;28;20129;-80
2024/02/16 09:34:54;;;;;;;4.22;2.40;;;;;;;-141.50;100.00;63355.56;5010944;28;20123;-79
2024/02/16 09:37:21;;;;;;;4.57;2.40;;;;;;;-141.50;100.00;63355.56;5001515;28;20068;-81
2024/02/16 09:39:48;;;;;;;5.53;2.47;;;;;;;-141.50;100.00;63355.56;5004635;28;20050;-79
2024/02/16 09:42:16;;;;;;;5.93;2.05;;;;;;;-141.50;100.00;63355.56;5018437;28;20053;-81
2024/02/16 09:44:44;;;;;;;3.78;2.13;;;;;;;-141.50;100.00;63355.56;5014750;28;20065;-80
2024/02/16 09:47:12;;;;;;;5.22;2.22;;;;;;;-141.50;100.00;63355.56;5021748;28;20057;-80
2024/02/16 09:49:39;;;;;;;5.22;2.10;;;;;;;-141.50;100.00;63355.56;5037691;28;20527;-80
2024/02/16 09:52:11;;;;;;;3.30;1.80;;;;;;;-141.50;100.00;63355.56;5025844;28;20049;-79
2024/02/16 09:54:40;;;;;;;2.70;1.50;;;;;;;-141.50;100.00;63355.56;5021368;28;20840;-81
2024/02/16 09:57:08;;;;;;;7.30;2.10;;;;;;;-141.50;100.00;63355.56;5002951;28;20077;-79
2024/02/16 09:59:36;;;;;;;3.35;1.88;;;;;;;-141.50;100.00;63355.56;5008306;28;20076;-78
2024/02/16 10:02:04;;;;;;;3.42;1.70;;;;;;;-141.50;100.00;63355.56;5004402;28;20050;-78
2024/02/16 10:04:31;;;;;;;3.67;2.05;;;;;;;-141.50;100.00;63355.56;5005324;28;20438;-78
2024/02/16 10:07:04;;;;;;;5.32;2.30;;;;;;;-141.50;100.00;63355.56;5019777;28;20149;-78
2024/02/16 10:09:35;;;;;;;4.63;2.35;;;;;;;-141.50;100.00;63355.56;5013558;28;20065;-80
2024/02/16 10:12:02;;;;;;;3.90;2.20;;;;;;;-141.50;100.00;63355.56;5028519;28;20132;-79
2024/02/16 10:14:31;;;;;;;4.85;2.50;;;;;;;-141.50;100.00;63355.56;5009536;28;20133;-77
2024/02/16 10:17:03;;;;;;;4.32;2.08;;;;;;;-141.50;100.00;63355.56;5016091;28;20050;-77
2024/02/16 10:19:39;;;;;;;4.63;2.13;;;;;;;-141.50;100.00;63355.56;5016919;28;20072;-77
2024/02/16 10:22:08;;;;;;;2.65;1.52;;;;;;;-141.50;100.00;63355.56;5011332;28;20049;-79
2024/02/16 10:24:35;;;;;;;5.85;1.75;;;;;;;-141.50;100.00;63355.56;5018751;28;20049;-75
2024/02/16 10:27:02;;;;;;;4.93;1.80;;;;;;;-141.50;100.00;63355.56;4998241;28;20121;-77
2024/02/16 10:29:30;;;;;;;4.18;1.80;;;;;;;-141.50;100.00;63355.56;5035124;28;20045;-76
2024/02/16 10:31:57;;;;;;;3.47;1.88;;;;;;;-141.50;100.00;63355.56;5035778;28;20760;-77
2024/02/16 10:34:24;;;;;;;3.70;1.60;;;;;;;-141.50;100.00;63355.56;5013618;28;20055;-77
2024/02/16 10:36:52;;;;;;;5.10;1.80;;;;;;;-141.50;100.00;63355.56;5006359;28;20090;-77
2024/02/16 10:39:19;;;;;;;3.55;1.70;;;;;;;-141.50;100.00;63355.56;5014709;28;20117;-77
2024/02/16 10:41:48;;;;;;;2.05;1.30;;;;;;;-141.50;100.00;63355.56;5027812;28;20045;-77
2024/02/16 10:44:15;;;;;;;5.15;1.70;;;;;;;-141.50;100.00;63355.56;5033917;28;20053;-76
2024/02/16 10:46:42;;;;;;;2.38;1.30;;;;;;;-141.50;100.00;63355.56;5013184;28;20046;-79
2024/02/16 10:49:09;;;;;;;3.42;1.23;;;;;;;-141.50;100.00;63355.56;5009377;28;20799;-78
2024/02/16 10:51:44;;;;;;;2.15;1.40;;;;;;;-141.50;100.00;63355.56;5037971;28;20112;-78
2024/02/16 10:54:14;;;;;;;;;;;;;;;-141.50;100.00;63355.56;5024827;28;20072;-78
2024/02/16 10:56:43;;;;;;;2.80;1.40;;;;;;;-141.50;100.00;63355.56;5023763;28;19922;-78
2024/02/16 10:59:10;;;;;;;2.83;1.38;;;;;;;-141.50;100.00;63355.56;5015883;28;20050;-78
2024/02/16 11:01:42;;;;;;;3.05;1.30;;;;;;;-141.50;100.00;63355.56;5010839;28;20109;-76
2024/02/16 11:04:15;;;;;;;3.20;1.52;;;;;;;-141.50;100.00;63355.56;5019910;28;20049;-76
2024/02/16 11:06:56;;;;;;;2.55;1.15;;;;;;;-141.50;100.00;63355.56;5016322;28;20124;-80
2024/02/16 11:09:25;;;;;;;2.92;1.05;;;;;;;-141.50;100.00;63355.56;4999378;28;20062;-78